sensor_id;sensor_type;location;lat;lon;timestamp;pressure;altitude;pressure_sealevel;temperature;humidity
20019;BME280;10170;42.502;26.526;2023-03-20T00:01:59;100209.06;;;4.30;100.00
20019;BME280;10170;42.502;26.526;2023-03-20T00:04:26;100212.38;;;4.32;100.00
20019;BME280;10170;42.502;26.526;2023-03-20T00:06:55;100212.75;;;4.20;100.00
20019;BME280;10170;42.502;26.526;2023-03-20T00:09:21;100209.38;;;3.92;100.00
20019;BME280;10170;42.502;26.526;2023-03-20T00:11:52;100209.28;;;3.67;100.00
20019;BME280;10170;42.502;26.526;2023-03-20T00:14:20;100200.81;;;3.73;100.00
20019;BME280;10170;42.502;26.526;2023-03-20T00:16:50;100199.66;;;3.75;100.00
20019;BME280;10170;42.502;26.526;2023-03-20T00:19:18;100196.56;;;3.62;100.00
20019;BME280;10170;42.502;26.526;2023-03-20T00:21:46;100190.19;;;3.65;100.00
20019;BME280;10170;42.502;26.526;2023-03-20T00:24:14;100183.47;;;3.35;100.00
20019;BME280;10170;42.502;26.526;2023-03-20T00:26:42;100191.63;;;3.32;100.00
20019;BME280;10170;42.502;26.526;2023-03-20T00:29:23;100193.56;;;3.30;100.00
20019;BME280;10170;42.502;26.526;2023-03-20T00:31:50;100196.72;;;3.34;100.00
20019;BME280;10170;42.502;26.526;2023-03-20T00:34:19;100186.50;;;3.03;100.00
20019;BME280;10170;42.502;26.526;2023-03-20T00:36:47;100182.25;;;2.93;100.00
20019;BME280;10170;42.502;26.526;2023-03-20T00:39:14;100181.31;;;2.94;100.00
20019;BME280;10170;42.502;26.526;2023-03-20T00:41:43;100173.44;;;2.94;100.00
20019;BME280;10170;42.502;26.526;2023-03-20T00:46:52;100170.44;;;2.79;100.00
20019;BME280;10170;42.502;26.526;2023-03-20T00:49:22;100168.22;;;2.84;100.00
20019;BME280;10170;42.502;26.526;2023-03-20T00:51:50;100164.34;;;2.79;100.00
20019;BME280;10170;42.502;26.526;2023-03-20T00:54:16;100153.19;;;2.67;100.00
20019;BME280;10170;42.502;26.526;2023-03-20T00:57:07;100160.56;;;2.91;100.00
20019;BME280;10170;42.502;26.526;2023-03-20T00:59:41;100162.50;;;2.89;100.00
20019;BME280;10170;42.502;26.526;2023-03-20T01:02:12;100164.72;;;2.93;100.00
20019;BME280;10170;42.502;26.526;2023-03-20T01:04:40;100158.38;;;2.86;100.00
20019;BME280;10170;42.502;26.526;2023-03-20T01:07:11;100163.19;;;2.91;100.00
20019;BME280;10170;42.502;26.526;2023-03-20T01:09:39;100160.78;;;2.70;100.00
20019;BME280;10170;42.502;26.526;2023-03-20T01:12:10;100155.53;;;2.70;100.00
20019;BME280;10170;42.502;26.526;2023-03-20T01:14:37;100144.19;;;2.79;100.00
20019;BME280;10170;42.502;26.526;2023-03-20T01:17:05;100148.81;;;2.95;100.00
20019;BME280;10170;42.502;26.526;2023-03-20T01:19:38;100122.00;;;2.55;100.00
20019;BME280;10170;42.502;26.526;2023-03-20T01:22:06;100154.78;;;2.41;100.00
20019;BME280;10170;42.502;26.526;2023-03-20T01:24:33;100139.03;;;2.51;100.00
20019;BME280;10170;42.502;26.526;2023-03-20T01:26:59;100156.63;;;2.22;100.00
20019;BME280;10170;42.502;26.526;2023-03-20T01:29:30;100144.97;;;2.53;100.00
20019;BME280;10170;42.502;26.526;2023-03-20T01:31:57;100140.97;;;2.39;100.00
20019;BME280;10170;42.502;26.526;2023-03-20T01:34:23;100134.09;;;2.38;100.00
20019;BME280;10170;42.502;26.526;2023-03-20T01:36:53;100137.72;;;2.08;100.00
20019;BME280;10170;42.502;26.526;2023-03-20T01:39:22;100142.06;;;2.37;100.00
20019;BME280;10170;42.502;26.526;2023-03-20T01:41:54;100140.88;;;2.22;100.00
20019;BME280;10170;42.502;26.526;2023-03-20T01:44:24;100142.69;;;1.92;100.00
20019;BME280;10170;42.502;26.526;2023-03-20T01:46:52;100118.69;;;1.78;100.00
20019;BME280;10170;42.502;26.526;2023-03-20T01:51:49;100141.31;;;2.07;100.00
20019;BME280;10170;42.502;26.526;2023-03-20T01:54:35;100145.19;;;1.94;100.00
20019;BME280;10170;42.502;26.526;2023-03-20T01:57:09;100138.97;;;1.66;100.00
20019;BME280;10170;42.502;26.526;2023-03-20T01:59:41;100134.97;;;1.62;100.00
20019;BME280;10170;42.502;26.526;2023-03-20T02:02:13;100139.66;;;1.49;100.00
20019;BME280;10170;42.502;26.526;2023-03-20T02:04:44;100133.88;;;1.55;100.00
20019;BME280;10170;42.502;26.526;2023-03-20T02:07:15;100136.06;;;1.50;100.00
20019;BME280;10170;42.502;26.526;2023-03-20T02:09:46;100129.31;;;1.57;100.00
20019;BME280;10170;42.502;26.526;2023-03-20T02:12:14;100126.41;;;1.41;100.00
20019;BME280;10170;42.502;26.526;2023-03-20T02:14:42;100130.53;;;1.34;100.00
20019;BME280;10170;42.502;26.526;2023-03-20T02:17:10;100125.13;;;1.26;100.00
20019;BME280;10170;42.502;26.526;2023-03-20T02:31:28;100138.50;;;1.23;100.00
20019;BME280;10170;42.502;26.526;2023-03-20T02:43:09;100125.16;;;1.55;100.00
20019;BME280;10170;42.502;26.526;2023-03-20T02:46:23;100125.16;;;1.55;100.00
20019;BME280;10170;42.502;26.526;2023-03-20T02:49:04;100121.59;;;1.56;100.00
20019;BME280;10170;42.502;26.526;2023-03-20T02:51:40;100128.47;;;1.76;100.00
20019;BME280;10170;42.502;26.526;2023-03-20T02:58:06;100128.22;;;1.50;100.00
20019;BME280;10170;42.502;26.526;2023-03-20T03:00:36;100120.88;;;1.35;100.00
20019;BME280;10170;42.502;26.526;2023-03-20T03:03:12;100124.59;;;1.42;100.00
20019;BME280;10170;42.502;26.526;2023-03-20T03:05:47;100123.38;;;1.55;100.00
20019;BME280;10170;42.502;26.526;2023-03-20T03:08:19;100114.97;;;1.33;100.00
20019;BME280;10170;42.502;26.526;2023-03-20T03:10:54;100121.97;;;1.23;100.00
20019;BME280;10170;42.502;26.526;2023-03-20T03:13:27;100120.00;;;1.15;100.00
20019;BME280;10170;42.502;26.526;2023-03-20T03:15:59;100128.56;;;1.17;100.00
20019;BME280;10170;42.502;26.526;2023-03-20T03:18:30;100114.38;;;1.29;100.00
20019;BME280;10170;42.502;26.526;2023-03-20T03:20:59;100117.13;;;1.18;100.00
20019;BME280;10170;42.502;26.526;2023-03-20T03:23:34;100120.66;;;0.98;100.00
20019;BME280;10170;42.502;26.526;2023-03-20T03:26:04;100120.09;;;0.94;100.00
20019;BME280;10170;42.502;26.526;2023-03-20T03:31:04;100119.13;;;0.95;100.00
20019;BME280;10170;42.502;26.526;2023-03-20T03:33:35;100120.09;;;0.94;100.00
20019;BME280;10170;42.502;26.526;2023-03-20T03:41:34;100121.03;;;0.93;100.00
20019;BME280;10170;42.502;26.526;2023-03-20T03:47:17;100108.59;;;1.16;100.00
20019;BME280;10170;42.502;26.526;2023-03-20T03:49:49;100112.00;;;1.07;100.00
20019;BME280;10170;42.502;26.526;2023-03-20T03:52:21;100118.47;;;1.03;100.00
20019;BME280;10170;42.502;26.526;2023-03-20T03:55:02;100105.56;;;0.81;100.00
20019;BME280;10170;42.502;26.526;2023-03-20T03:57:36;100110.56;;;0.84;100.00
20019;BME280;10170;42.502;26.526;2023-03-20T04:00:05;100120.47;;;0.90;100.00
20019;BME280;10170;42.502;26.526;2023-03-20T04:02:33;100124.69;;;1.02;100.00
20019;BME280;10170;42.502;26.526;2023-03-20T04:05:01;100126.19;;;1.04;100.00
20019;BME280;10170;42.502;26.526;2023-03-20T04:07:29;100119.44;;;1.02;100.00
20019;BME280;10170;42.502;26.526;2023-03-20T04:09:56;100123.31;;;1.08;100.00
20019;BME280;10170;42.502;26.526;2023-03-20T04:12:31;100130.34;;;1.17;100.00
20019;BME280;10170;42.502;26.526;2023-03-20T04:14:59;100117.28;;;1.26;100.00
20019;BME280;10170;42.502;26.526;2023-03-20T04:17:28;100108.19;;;1.30;100.00
20019;BME280;10170;42.502;26.526;2023-03-20T04:19:56;100115.50;;;1.27;100.00
20019;BME280;10170;42.502;26.526;2023-03-20T04:22:23;100115.63;;;1.35;100.00
20019;BME280;10170;42.502;26.526;2023-03-20T04:24:50;100112.63;;;1.39;100.00
20019;BME280;10170;42.502;26.526;2023-03-20T04:27:18;100121.16;;;1.41;100.00
20019;BME280;10170;42.502;26.526;2023-03-20T04:29:45;100120.91;;;1.54;100.00
20019;BME280;10170;42.502;26.526;2023-03-20T04:32:11;100120.78;;;1.55;100.00
20019;BME280;10170;42.502;26.526;2023-03-20T04:34:38;100126.81;;;1.65;100.00
20019;BME280;10170;42.502;26.526;2023-03-20T04:37:05;100123.78;;;1.89;100.00
20019;BME280;10170;42.502;26.526;2023-03-20T04:39:34;100123.66;;;1.71;100.00
20019;BME280;10170;42.502;26.526;2023-03-20T04:42:03;100127.38;;;1.97;100.00
20019;BME280;10170;42.502;26.526;2023-03-20T04:44:30;100120.34;;;1.98;100.00
20019;BME280;10170;42.502;26.526;2023-03-20T04:46:57;100122.81;;;1.99;100.00
20019;BME280;10170;42.502;26.526;2023-03-20T04:49:24;100117.31;;;2.02;100.00
20019;BME280;10170;42.502;26.526;2023-03-20T04:51:52;100118.69;;;1.87;100.00
20019;BME280;10170;42.502;26.526;2023-03-20T04:54:19;100118.69;;;1.97;100.00
20019;BME280;10170;42.502;26.526;2023-03-20T04:56:46;100127.75;;;2.31;100.00
20019;BME280;10170;42.502;26.526;2023-03-20T04:59:12;100135.19;;;2.36;100.00
20019;BME280;10170;42.502;26.526;2023-03-20T05:01:39;100141.13;;;2.38;100.00
20019;BME280;10170;42.502;26.526;2023-03-20T05:04:06;100134.72;;;2.59;100.00
20019;BME280;10170;42.502;26.526;2023-03-20T05:06:33;100136.72;;;2.38;100.00
20019;BME280;10170;42.502;26.526;2023-03-20T05:09:00;100129.78;;;2.83;100.00
20019;BME280;10170;42.502;26.526;2023-03-20T05:11:27;100132.22;;;2.94;100.00
20019;BME280;10170;42.502;26.526;2023-03-20T05:13:54;100127.94;;;2.93;100.00
20019;BME280;10170;42.502;26.526;2023-03-20T05:16:21;100126.34;;;3.10;100.00
20019;BME280;10170;42.502;26.526;2023-03-20T05:18:48;100136.50;;;3.22;100.00
20019;BME280;10170;42.502;26.526;2023-03-20T05:21:15;100121.13;;;3.28;100.00
20019;BME280;10170;42.502;26.526;2023-03-20T05:23:41;100124.75;;;3.44;100.00
20019;BME280;10170;42.502;26.526;2023-03-20T05:26:08;100128.19;;;3.45;100.00
20019;BME280;10170;42.502;26.526;2023-03-20T05:28:36;100127.06;;;3.30;100.00
20019;BME280;10170;42.502;26.526;2023-03-20T05:31:03;100130.41;;;3.67;100.00
20019;BME280;10170;42.502;26.526;2023-03-20T05:33:29;100132.47;;;3.98;100.00
20019;BME280;10170;42.502;26.526;2023-03-20T05:35:56;100127.75;;;4.02;100.00
20019;BME280;10170;42.502;26.526;2023-03-20T05:38:23;100136.34;;;4.29;100.00
20019;BME280;10170;42.502;26.526;2023-03-20T05:40:58;100121.50;;;4.46;100.00
20019;BME280;10170;42.502;26.526;2023-03-20T05:43:25;100133.00;;;4.45;100.00
20019;BME280;10170;42.502;26.526;2023-03-20T05:45:55;100126.53;;;4.40;100.00
20019;BME280;10170;42.502;26.526;2023-03-20T05:48:22;100127.22;;;4.67;100.00
20019;BME280;10170;42.502;26.526;2023-03-20T05:50:49;100130.25;;;4.80;100.00
20019;BME280;10170;42.502;26.526;2023-03-20T05:53:16;100132.91;;;4.88;100.00
20019;BME280;10170;42.502;26.526;2023-03-20T05:55:43;100121.22;;;4.57;100.00
20019;BME280;10170;42.502;26.526;2023-03-20T05:58:10;100134.03;;;4.78;100.00
20019;BME280;10170;42.502;26.526;2023-03-20T06:00:38;100135.72;;;4.95;100.00
20019;BME280;10170;42.502;26.526;2023-03-20T06:03:05;100144.59;;;4.35;100.00
20019;BME280;10170;42.502;26.526;2023-03-20T06:05:35;100139.38;;;4.17;100.00
20019;BME280;10170;42.502;26.526;2023-03-20T06:08:02;100136.47;;;4.02;100.00
20019;BME280;10170;42.502;26.526;2023-03-20T06:10:30;100136.03;;;3.89;100.00
20019;BME280;10170;42.502;26.526;2023-03-20T06:12:57;100142.47;;;4.12;100.00
20019;BME280;10170;42.502;26.526;2023-03-20T06:15:27;100130.00;;;3.97;100.00
20019;BME280;10170;42.502;26.526;2023-03-20T06:17:55;100128.88;;;3.99;100.00
20019;BME280;10170;42.502;26.526;2023-03-20T06:20:22;100131.34;;;4.18;100.00
20019;BME280;10170;42.502;26.526;2023-03-20T06:22:48;100150.63;;;4.27;100.00
20019;BME280;10170;42.502;26.526;2023-03-20T06:25:15;100152.00;;;4.31;100.00
20019;BME280;10170;42.502;26.526;2023-03-20T06:27:42;100148.03;;;4.53;100.00
20019;BME280;10170;42.502;26.526;2023-03-20T06:30:09;100148.06;;;4.61;100.00
20019;BME280;10170;42.502;26.526;2023-03-20T06:32:36;100136.59;;;4.70;100.00
20019;BME280;10170;42.502;26.526;2023-03-20T06:35:04;100128.25;;;4.82;100.00
20019;BME280;10170;42.502;26.526;2023-03-20T06:37:31;100143.81;;;4.93;100.00
20019;BME280;10170;42.502;26.526;2023-03-20T06:39:58;100137.41;;;4.96;100.00
20019;BME280;10170;42.502;26.526;2023-03-20T06:42:25;100132.81;;;5.06;100.00
20019;BME280;10170;42.502;26.526;2023-03-20T06:44:51;100139.75;;;5.07;100.00
20019;BME280;10170;42.502;26.526;2023-03-20T06:47:18;100134.84;;;5.12;100.00
20019;BME280;10170;42.502;26.526;2023-03-20T06:49:45;100128.16;;;4.92;100.00
20019;BME280;10170;42.502;26.526;2023-03-20T06:52:17;100138.75;;;5.00;100.00
20019;BME280;10170;42.502;26.526;2023-03-20T06:54:44;100120.34;;;5.16;100.00
20019;BME280;10170;42.502;26.526;2023-03-20T06:57:11;100136.78;;;5.52;100.00
20019;BME280;10170;42.502;26.526;2023-03-20T06:59:40;100131.41;;;5.85;100.00
20019;BME280;10170;42.502;26.526;2023-03-20T07:02:09;100131.25;;;5.87;100.00
20019;BME280;10170;42.502;26.526;2023-03-20T07:04:36;100139.28;;;5.77;100.00
20019;BME280;10170;42.502;26.526;2023-03-20T07:07:03;100138.69;;;6.15;100.00
20019;BME280;10170;42.502;26.526;2023-03-20T07:09:30;100143.44;;;6.52;100.00
20019;BME280;10170;42.502;26.526;2023-03-20T07:11:57;100139.22;;;6.82;100.00
20019;BME280;10170;42.502;26.526;2023-03-20T07:14:23;100134.91;;;6.97;100.00
20019;BME280;10170;42.502;26.526;2023-03-20T07:16:50;100141.00;;;7.36;100.00
20019;BME280;10170;42.502;26.526;2023-03-20T07:19:18;100126.00;;;7.82;100.00
20019;BME280;10170;42.502;26.526;2023-03-20T07:21:44;100132.03;;;8.35;100.00
20019;BME280;10170;42.502;26.526;2023-03-20T07:24:11;100137.94;;;8.45;100.00
20019;BME280;10170;42.502;26.526;2023-03-20T07:26:39;100133.84;;;8.87;100.00
20019;BME280;10170;42.502;26.526;2023-03-20T07:29:06;100133.03;;;8.86;100.00
20019;BME280;10170;42.502;26.526;2023-03-20T07:31:33;100145.91;;;9.18;100.00
20019;BME280;10170;42.502;26.526;2023-03-20T07:34:00;100143.06;;;9.20;100.00
20019;BME280;10170;42.502;26.526;2023-03-20T07:36:27;100140.34;;;9.13;100.00
20019;BME280;10170;42.502;26.526;2023-03-20T07:38:53;100162.56;;;8.83;100.00
20019;BME280;10170;42.502;26.526;2023-03-20T07:41:21;100164.25;;;8.47;100.00
20019;BME280;10170;42.502;26.526;2023-03-20T07:43:47;100159.16;;;9.33;100.00
20019;BME280;10170;42.502;26.526;2023-03-20T07:46:14;100170.25;;;9.22;100.00
20019;BME280;10170;42.502;26.526;2023-03-20T07:48:41;100174.44;;;9.02;100.00
20019;BME280;10170;42.502;26.526;2023-03-20T07:51:07;100158.72;;;8.71;100.00
20019;BME280;10170;42.502;26.526;2023-03-20T07:53:34;100165.38;;;9.11;100.00
20019;BME280;10170;42.502;26.526;2023-03-20T07:56:02;100164.25;;;10.06;100.00
20019;BME280;10170;42.502;26.526;2023-03-20T07:58:29;100180.44;;;9.90;100.00
20019;BME280;10170;42.502;26.526;2023-03-20T08:00:56;100166.09;;;9.48;100.00
20019;BME280;10170;42.502;26.526;2023-03-20T08:03:24;100181.91;;;9.56;100.00
20019;BME280;10170;42.502;26.526;2023-03-20T08:05:50;100184.44;;;10.36;100.00
20019;BME280;10170;42.502;26.526;2023-03-20T08:08:17;100181.34;;;10.32;100.00
20019;BME280;10170;42.502;26.526;2023-03-20T08:10:44;100189.94;;;9.63;100.00
20019;BME280;10170;42.502;26.526;2023-03-20T08:13:11;100188.38;;;10.04;100.00
20019;BME280;10170;42.502;26.526;2023-03-20T08:15:38;100179.75;;;10.02;100.00
20019;BME280;10170;42.502;26.526;2023-03-20T08:18:05;100167.84;;;10.61;100.00
20019;BME280;10170;42.502;26.526;2023-03-20T08:20:31;100176.59;;;11.58;100.00
20019;BME280;10170;42.502;26.526;2023-03-20T08:22:58;100178.44;;;12.24;100.00
20019;BME280;10170;42.502;26.526;2023-03-20T08:25:25;100184.59;;;12.18;100.00
20019;BME280;10170;42.502;26.526;2023-03-20T08:27:52;100178.00;;;12.21;100.00
20019;BME280;10170;42.502;26.526;2023-03-20T08:30:18;100180.50;;;12.22;100.00
20019;BME280;10170;42.502;26.526;2023-03-20T08:32:45;100176.41;;;12.72;100.00
20019;BME280;10170;42.502;26.526;2023-03-20T08:35:12;100190.31;;;11.55;100.00
20019;BME280;10170;42.502;26.526;2023-03-20T08:37:57;100185.56;;;11.10;100.00
20019;BME280;10170;42.502;26.526;2023-03-20T08:40:24;100183.59;;;10.35;100.00
20019;BME280;10170;42.502;26.526;2023-03-20T08:42:51;100158.84;;;10.35;100.00
20019;BME280;10170;42.502;26.526;2023-03-20T08:45:18;100169.06;;;11.61;100.00
20019;BME280;10170;42.502;26.526;2023-03-20T08:47:48;100176.06;;;11.35;100.00
20019;BME280;10170;42.502;26.526;2023-03-20T08:50:15;100163.19;;;11.86;100.00
20019;BME280;10170;42.502;26.526;2023-03-20T08:52:42;100179.47;;;12.62;100.00
20019;BME280;10170;42.502;26.526;2023-03-20T08:55:10;100163.50;;;12.69;100.00
20019;BME280;10170;42.502;26.526;2023-03-20T08:57:37;100168.81;;;12.49;100.00
20019;BME280;10170;42.502;26.526;2023-03-20T09:00:05;100163.88;;;13.56;100.00
20019;BME280;10170;42.502;26.526;2023-03-20T09:02:33;100166.38;;;13.51;100.00
20019;BME280;10170;42.502;26.526;2023-03-20T09:05:00;100166.94;;;14.35;100.00
20019;BME280;10170;42.502;26.526;2023-03-20T09:07:27;100166.84;;;14.48;100.00
20019;BME280;10170;42.502;26.526;2023-03-20T09:09:54;100161.09;;;15.12;100.00
20019;BME280;10170;42.502;26.526;2023-03-20T09:12:21;100162.41;;;13.66;100.00
20019;BME280;10170;42.502;26.526;2023-03-20T09:14:47;100160.16;;;14.01;100.00
20019;BME280;10170;42.502;26.526;2023-03-20T09:17:14;100153.84;;;14.51;100.00
20019;BME280;10170;42.502;26.526;2023-03-20T09:19:41;100156.69;;;14.32;100.00
20019;BME280;10170;42.502;26.526;2023-03-20T09:22:14;100148.06;;;14.97;100.00
20019;BME280;10170;42.502;26.526;2023-03-20T09:24:41;100146.72;;;14.88;100.00
20019;BME280;10170;42.502;26.526;2023-03-20T09:27:07;100147.19;;;15.57;100.00
20019;BME280;10170;42.502;26.526;2023-03-20T09:29:34;100148.22;;;15.56;100.00
20019;BME280;10170;42.502;26.526;2023-03-20T09:32:01;100124.22;;;15.61;100.00
20019;BME280;10170;42.502;26.526;2023-03-20T09:34:27;100140.56;;;16.31;100.00
20019;BME280;10170;42.502;26.526;2023-03-20T09:36:54;100139.22;;;15.99;100.00
20019;BME280;10170;42.502;26.526;2023-03-20T09:39:22;100131.16;;;15.15;100.00
20019;BME280;10170;42.502;26.526;2023-03-20T09:41:49;100127.69;;;15.32;100.00
20019;BME280;10170;42.502;26.526;2023-03-20T09:47:36;100107.28;;;14.95;100.00
20019;BME280;10170;42.502;26.526;2023-03-20T09:50:33;100116.88;;;14.85;100.00
20019;BME280;10170;42.502;26.526;2023-03-20T09:53:09;100111.66;;;14.53;100.00
20019;BME280;10170;42.502;26.526;2023-03-20T09:55:39;100106.38;;;15.85;100.00
20019;BME280;10170;42.502;26.526;2023-03-20T10:00:47;100097.03;;;16.98;97.73
20019;BME280;10170;42.502;26.526;2023-03-20T10:03:20;100102.16;;;16.30;100.00
20019;BME280;10170;42.502;26.526;2023-03-20T10:05:55;100098.84;;;16.05;100.00
20019;BME280;10170;42.502;26.526;2023-03-20T10:08:29;100103.75;;;15.97;100.00
20019;BME280;10170;42.502;26.526;2023-03-20T10:11:31;100101.88;;;16.84;100.00
20019;BME280;10170;42.502;26.526;2023-03-20T10:20:09;100083.22;;;17.18;93.20
20019;BME280;10170;42.502;26.526;2023-03-20T10:22:47;100082.38;;;17.29;88.50
20019;BME280;10170;42.502;26.526;2023-03-20T10:25:36;100069.13;;;17.50;90.07
20019;BME280;10170;42.502;26.526;2023-03-20T10:28:21;100070.44;;;18.26;84.84
20019;BME280;10170;42.502;26.526;2023-03-20T10:31:03;100068.63;;;17.14;90.06
20019;BME280;10170;42.502;26.526;2023-03-20T10:41:34;100054.59;;;17.51;93.14
20019;BME280;10170;42.502;26.526;2023-03-20T10:44:05;100058.31;;;16.82;93.66
20019;BME280;10170;42.502;26.526;2023-03-20T10:46:44;100039.94;;;17.03;94.46
20019;BME280;10170;42.502;26.526;2023-03-20T10:49:17;100041.34;;;17.61;92.24
20019;BME280;10170;42.502;26.526;2023-03-20T10:51:52;100033.88;;;17.80;82.82
20019;BME280;10170;42.502;26.526;2023-03-20T10:54:23;100039.53;;;17.95;84.24
20019;BME280;10170;42.502;26.526;2023-03-20T10:56:54;100035.72;;;17.35;87.53
20019;BME280;10170;42.502;26.526;2023-03-20T10:59:25;100022.47;;;17.17;89.57
20019;BME280;10170;42.502;26.526;2023-03-20T11:01:53;100018.53;;;18.63;88.41
20019;BME280;10170;42.502;26.526;2023-03-20T11:04:20;100013.69;;;19.52;78.75
20019;BME280;10170;42.502;26.526;2023-03-20T11:09:25;100010.06;;;19.41;70.64
20019;BME280;10170;42.502;26.526;2023-03-20T11:11:56;99996.88;;;18.75;72.52
20019;BME280;10170;42.502;26.526;2023-03-20T11:14:31;99991.06;;;18.28;76.57
20019;BME280;10170;42.502;26.526;2023-03-20T11:17:00;99990.91;;;18.95;75.54
20019;BME280;10170;42.502;26.526;2023-03-20T11:19:34;99991.91;;;19.63;71.99
20019;BME280;10170;42.502;26.526;2023-03-20T11:22:22;99995.53;;;19.47;70.20
20019;BME280;10170;42.502;26.526;2023-03-20T11:24:55;99980.50;;;19.30;71.88
20019;BME280;10170;42.502;26.526;2023-03-20T11:27:29;99972.69;;;18.25;75.54
20019;BME280;10170;42.502;26.526;2023-03-20T11:29:57;99973.34;;;18.32;76.21
20019;BME280;10170;42.502;26.526;2023-03-20T11:32:40;99961.78;;;18.97;75.04
20019;BME280;10170;42.502;26.526;2023-03-20T11:35:28;99961.63;;;19.30;73.92
20019;BME280;10170;42.502;26.526;2023-03-20T11:38:17;99952.47;;;19.31;73.22
20019;BME280;10170;42.502;26.526;2023-03-20T11:40:46;99940.88;;;19.04;73.89
20019;BME280;10170;42.502;26.526;2023-03-20T11:43:18;99938.78;;;19.32;73.25
20019;BME280;10170;42.502;26.526;2023-03-20T11:46:04;99934.75;;;20.45;67.95
20019;BME280;10170;42.502;26.526;2023-03-20T11:48:41;99934.03;;;20.64;65.60
20019;BME280;10170;42.502;26.526;2023-03-20T11:51:13;99929.22;;;19.25;68.49
20019;BME280;10170;42.502;26.526;2023-03-20T11:53:56;99919.84;;;19.59;68.16
20019;BME280;10170;42.502;26.526;2023-03-20T11:56:28;99908.53;;;19.04;69.39
20019;BME280;10170;42.502;26.526;2023-03-20T12:01:27;99899.31;;;19.58;70.01
20019;BME280;10170;42.502;26.526;2023-03-20T12:06:24;99899.91;;;20.48;67.01
20019;BME280;10170;42.502;26.526;2023-03-20T12:09:06;99907.28;;;20.68;63.84
20019;BME280;10170;42.502;26.526;2023-03-20T12:11:50;99911.25;;;19.67;66.90
20019;BME280;10170;42.502;26.526;2023-03-20T12:14:26;99905.09;;;19.40;66.63
20019;BME280;10170;42.502;26.526;2023-03-20T12:17:09;99901.47;;;19.56;67.44
20019;BME280;10170;42.502;26.526;2023-03-20T12:19:41;99895.94;;;19.72;68.36
20019;BME280;10170;42.502;26.526;2023-03-20T12:27:24;99881.22;;;20.42;63.07
20019;BME280;10170;42.502;26.526;2023-03-20T12:29:59;99876.03;;;20.20;64.07
20019;BME280;10170;42.502;26.526;2023-03-20T12:32:47;99874.88;;;20.16;63.50
20019;BME280;10170;42.502;26.526;2023-03-20T12:35:40;99854.84;;;20.07;64.19
20019;BME280;10170;42.502;26.526;2023-03-20T12:40:45;99875.81;;;19.48;64.10
20019;BME280;10170;42.502;26.526;2023-03-20T12:43:13;99874.28;;;19.04;66.23
20019;BME280;10170;42.502;26.526;2023-03-20T12:48:57;99873.28;;;19.73;64.47
20019;BME280;10170;42.502;26.526;2023-03-20T12:57:08;99857.03;;;20.10;63.96
20019;BME280;10170;42.502;26.526;2023-03-20T12:59:50;99844.50;;;20.51;62.42
20019;BME280;10170;42.502;26.526;2023-03-20T13:11:28;99841.75;;;20.31;63.94
20019;BME280;10170;42.502;26.526;2023-03-20T13:14:07;99844.88;;;19.61;64.34
20019;BME280;10170;42.502;26.526;2023-03-20T13:19:37;99844.00;;;19.24;67.22
20019;BME280;10170;42.502;26.526;2023-03-20T13:22:19;99836.47;;;19.26;65.70
20019;BME280;10170;42.502;26.526;2023-03-20T13:24:54;99831.88;;;19.58;66.36
20019;BME280;10170;42.502;26.526;2023-03-20T13:27:41;99819.31;;;20.25;63.48
20019;BME280;10170;42.502;26.526;2023-03-20T13:30:33;99828.09;;;20.67;61.57
20019;BME280;10170;42.502;26.526;2023-03-20T13:39:34;99828.69;;;20.08;61.92
20019;BME280;10170;42.502;26.526;2023-03-20T13:42:07;99826.63;;;20.30;60.79
20019;BME280;10170;42.502;26.526;2023-03-20T13:44:36;99817.03;;;20.79;59.92
20019;BME280;10170;42.502;26.526;2023-03-20T13:47:10;99813.28;;;20.13;60.81
20019;BME280;10170;42.502;26.526;2023-03-20T13:50:03;99805.34;;;19.86;62.96
20019;BME280;10170;42.502;26.526;2023-03-20T13:52:41;99805.16;;;20.03;61.43
20019;BME280;10170;42.502;26.526;2023-03-20T14:00:44;99789.38;;;19.75;64.04
20019;BME280;10170;42.502;26.526;2023-03-20T14:03:20;99805.56;;;20.27;64.10
20019;BME280;10170;42.502;26.526;2023-03-20T14:05:50;99801.56;;;20.54;63.43
20019;BME280;10170;42.502;26.526;2023-03-20T14:08:28;99802.75;;;20.12;62.02
20019;BME280;10170;42.502;26.526;2023-03-20T14:13:38;99790.44;;;20.31;61.21
20019;BME280;10170;42.502;26.526;2023-03-20T14:16:09;99800.50;;;19.88;61.03
20019;BME280;10170;42.502;26.526;2023-03-20T14:18:40;99787.00;;;19.88;60.45
20019;BME280;10170;42.502;26.526;2023-03-20T14:21:14;99793.31;;;20.09;61.17
20019;BME280;10170;42.502;26.526;2023-03-20T14:23:49;99779.34;;;19.29;63.06
20019;BME280;10170;42.502;26.526;2023-03-20T14:26:25;99795.94;;;19.47;63.34
20019;BME280;10170;42.502;26.526;2023-03-20T14:31:32;99777.38;;;19.56;63.34
20019;BME280;10170;42.502;26.526;2023-03-20T14:37:02;99780.63;;;20.15;61.07
20019;BME280;10170;42.502;26.526;2023-03-20T14:56:34;99775.47;;;18.56;67.19
20019;BME280;10170;42.502;26.526;2023-03-20T14:59:05;99774.34;;;18.31;69.23
20019;BME280;10170;42.502;26.526;2023-03-20T15:04:08;99779.69;;;18.47;70.05
20019;BME280;10170;42.502;26.526;2023-03-20T15:06:44;99761.59;;;18.43;70.98
20019;BME280;10170;42.502;26.526;2023-03-20T15:09:13;99777.78;;;18.21;72.41
20019;BME280;10170;42.502;26.526;2023-03-20T15:11:42;99763.00;;;18.02;72.88
20019;BME280;10170;42.502;26.526;2023-03-20T15:14:09;99765.31;;;17.72;75.62
20019;BME280;10170;42.502;26.526;2023-03-20T15:16:43;99772.09;;;17.96;76.45